Holabird, South Dakota
Current Conditions -  °F | °C
As of 1:53 AM on Sunday 21 Dec 2014 (Local Time) from KPIR Reporting Station
Haze Haze  
Wind Chill: 14°   Ceiling: 9500
Heat Index: 22°   Visibility: 6mi
Dew Point: 20°   Wind: 6mph
Humidity: 92%   Direction: 60°ENE
Pressure: 29.78"   Gusts: NA
Location:  44.53°N, 99.6°W
Report Text: KPIR 210753Z AUTO 06005KT 6SM BR BKN095 BKN110 M06/M07 A2978 RMK AO2 SLP106 T10561067
Loading
Personal Weather Stations






























Interactive Weather Map New forecast layout! Learn more

10-Day Weather Forecast

Advertisements
Track Severe Weather on mobile